Avalon, Pennsylvania
Current Conditions -  °F | °C
As of 11:51 AM on Thursday 18 Dec 2014 (Local Time) from KPIT Reporting Station
Light Snow Light Snow  
Wind Chill: -7°   Ceiling: 1600
Heat Index: -2°   Visibility: 6mi
Dew Point: -6°   Wind: 10mph
Humidity: 78%   Direction: 280°W
Pressure: 30.18"   Gusts: NA
Location:  40.5069°N, 80.0715°W
Report Text: KPIT 181651Z 28009KT 6SM -SN BKN016 OVC023 M02/M06 A3018 RMK AO2 SLP242 P0000 T10221056
Loading
Personal Weather Stations






























Interactive Weather Map New forecast layout! Learn more

10-Day Weather Forecast

Advertisements
Track Severe Weather on mobile